ADDS METAR Data INFO
IDs: Format: Raw Decoded Include TAF

Data at: 0218 UTC 18 Jan 2018

PAII 180156Z AUTO 34008KT 1 1/2SM -SN BR OVC008 M02/M02 A2935 RMK AO2 CIG 005V012 SLP941 P0000 T10171022 FZRANO
PAII 180102Z AUTO 34010KT 2 1/2SM -SN BR OVC006 M01/M02 A2934 RMK AO2 P0000 FZRANO
PAII 180056Z AUTO 34010G14KT 1SM -SN BR OVC006 M01/M02 A2934 RMK AO2 SLP938 P0001 T10111017 FZRANO
PAII 180042Z AUTO 34011KT 1 1/4SM -SN BR OVC006 M01/M02 A2934 RMK AO2 CIG 004V010 P0001 FZRANO
PAII 180032Z AUTO 34009KT 3/4SM -SN BR OVC006 M01/M02 A2934 RMK AO2 CIG 004V010 P0001 FZRANO
PAII 172356Z AUTO 34009KT 2 1/2SM -SN BR OVC006 M01/M02 A2933 RMK AO2 VIS 1 1/2V5 UPB2257E09SNE2257B12 SLP934 P0000 60000 T10111017 11006 21022 51008 FZRANO
PAII 172335Z AUTO 34009KT 6SM -SN BR OVC006 M01/M02 A2932 RMK AO2 UPB2257E09SNE2257B12 P0000 FZRANO
PAII 172325Z AUTO 35011KT 2SM -SN BR OVC006 M01/M02 A2932 RMK AO2 VIS 1 1/2V4 UPB2257E09SNE2257B12 P0000 FZRANO
PAII 172231Z AUTO 35010KT 4SM -SN BR OVC008 M01/M02 A2932 RMK AO2 SNB15 CIG 006V010 P0000 FZRANO
PAII 172221Z AUTO 35008KT 2 1/2SM -SN BR OVC008 M01/M02 A2931 RMK AO2 VIS 2V5 SNB15 CIG 007V010 P0000 FZRANO
PAII 172211Z AUTO 35009G15KT 10SM BKN010 OVC020 M01/M02 A2931 RMK AO2 FZRANO
PAII 172047Z AUTO 35008KT 10SM -SN SCT009 BKN021 OVC037 M01/M02 A2930 RMK AO2 SNB45 P0000 FZRANO
PAII 172037Z AUTO 35007KT 10SM BKN009 BKN025 OVC037 M02/M02 A2930 RMK AO2 FZRANO
PAII 172026Z AUTO 35006KT 10SM SCT009 OVC037 M02/M02 A2930 RMK AO2 FZRANO
PAII 171920Z AUTO 35008KT 10SM BKN028 OVC045 M02/M03 A2927 RMK AO2 FZRANO
PAII 171856Z AUTO 35008KT 10SM BKN047 OVC060 M02/M03 A2927 RMK AO2 UPB1759E27SNE1759B09E18 SLP914 P0000 T10171028 FZRANO
PAII 171829Z AUTO 35008KT 10SM SCT027 BKN050 OVC070 M02/M03 A2925 RMK AO2 UPB1759E27SNE1759B09E18 P0000 FZRANO
PAII 171756Z AUTO 36010KT 9SM -SN BKN025 OVC039 M02/M02 A2924 RMK AO2 UPB26E43SNB11E26B45 SLP905 P0000 60004 T10171022 11006 21017 52007 FZRANO
PAII 171656Z AUTO 36008KT 10SM FEW026 OVC065 M01/M02 A2922 RMK AO2 SNE04B35E48 SLP898 P0000 T10111022 FZRANO
PAII 171556Z AUTO 35009KT 9SM -SN FEW007 OVC026 M01/M02 A2922 RMK AO2 UPB08E15SNE08B15 SLP896 P0000 T10111017 FZRANO
PAII 171549Z AUTO 35008G15KT 9SM -SN SCT007 OVC026 M01/M02 A2921 RMK AO2 UPB08E15SNE08B15 P0000 FZRANO
PAII 171456Z AUTO 36008G15KT 9SM -SN OVC007 M01/M01 A2921 RMK AO2 UPE21SNB02E15B21 SLP893 P0001 60004 T10061011 53003 FZRANO
PAII 171356Z AUTO 35012G18KT 10SM UP BKN007 BKN019 OVC031 M01/M02 A2920 RMK AO2 UPB22E28B47SNE22B28E47 SLP891 P0001 T10061017 FZRANO
PAII 171342Z AUTO 35010G16KT 9SM -SN SCT007 BKN018 OVC033 M01/M02 A2920 RMK AO2 UPB22E28SNE22B28 P0001 FZRANO
PAII 171332Z AUTO 35010G17KT 10SM -SN FEW009 SCT026 OVC033 M01/M02 A2920 RMK AO2 UPB22E28SNE22B28 P0001 FZRANO
PAII 171315Z AUTO 36011G17KT 9SM -SN FEW007 BKN027 OVC031 M01/M01 A2920 RMK AO2 P0001 FZRANO
PAII 171256Z AUTO 35012G17KT 10SM -SN SCT009 BKN014 OVC030 M01/M01 A2920 RMK AO2 UPB06E54SNE06B54 SLP890 P0002 T10061011 FZRANO
PAII 171253Z AUTO 35010G17KT 10SM UP SCT009 BKN017 OVC030 M01/M01 A2920 RMK AO2 UPB06SNE06 P0002 FZRANO
PAII 171144Z AUTO 35010KT 9SM -SN SCT008 BKN020 OVC036 M01/M01 A2920 RMK AO2 UPB1057E21SNE1057B21 P0001 FZRANO
PAII 171056Z AUTO 36007G14KT 9SM -SN FEW007 BKN032 OVC040 M01/M01 A2919 RMK AO2 UPE30SNB30 SLP886 P0000 T10061011 FZRANO
PAII 170949Z AUTO 35009KT 10SM UP SCT008 SCT045 OVC055 M01/M02 A2918 RMK AO2 UPB43 P0000 FZRANO
PAII 170932Z AUTO 35012G16KT 10SM BKN008 BKN031 OVC060 M01/M02 A2918 RMK AO2 FZRANO
PAII 170919Z AUTO 35009G16KT 10SM FEW008 SCT031 OVC060 M01/M02 A2917 RMK AO2 FZRANO
PAII 170856Z AUTO 36008G14KT 9SM FEW034 SCT042 OVC060 M01/M02 A2917 RMK AO2 UPB36E38SNB20E36B38E51 SLP882 P0001 60002 T10061017 53002 FZRANO
PAII 170756Z AUTO 35012G17KT 10SM FEW008 BKN027 OVC050 M01/M02 A2916 RMK AO2 UPB19E21SNE19 SLP879 P0000 T10061017 400061033 FZRANO
PAII 170727Z AUTO 36011G16KT 10SM SCT008 BKN019 OVC032 M01/M01 A2917 RMK AO2 UPB19E21SNE19 P0000 FZRANO
PAII 170626Z AUTO 36009G15KT 2SM -SN BR SCT006 OVC017 M01/M01 A2917 RMK AO2 P0001 FZRANO
PAII 170616Z AUTO 36008KT 1 3/4SM -SN BR SCT006 BKN014 OVC020 M01/M01 A2917 RMK AO2 P0000 FZRANO
PAII 170556Z AUTO 36008KT 2SM -SN BR BKN006 OVC022 M01/M01 A2917 RMK AO2 VIS 1V3 SLP880 P0001 60001 T10061011 10000 21011 55002 FZRANO
PAII 170544Z AUTO 36008KT 2 1/2SM -SN BR BKN006 BKN011 OVC022 M01/M02 A2917 RMK AO2 VIS 2V3 CIG 005V009 P0001 FZRANO
PAII 170522Z AUTO 35008KT 7SM -SN BKN008 BKN012 OVC024 M01/M02 A2917 RMK AO2 CIG 006V011 P0000 FZRANO
PAII 170456Z AUTO 35009G15KT 7SM -SN SCT008 BKN014 OVC033 M01/M02 A2917 RMK AO2 SLP879 P0000 T10061017 FZRANO
PAII 170422Z AUTO 35009G14KT 3SM -SN BR BKN008 OVC029 M01/M02 A2917 RMK AO2 CIG 007V014 P0000 FZRANO
PAII 170356Z AUTO 36007KT 8SM -SN BKN010 BKN016 OVC037 M01/M02 A2917 RMK AO2 UPE17SNB17 SLP880 P0000 T10061022 FZRANO
PAII 170256Z AUTO 36009KT 10SM UP BKN010 OVC014 M01/M02 A2917 RMK AO2 UPB18 SLP882 P0000 60000 T10061017 56004 FZRANO
PAII 170241Z AUTO 35010G16KT 10SM UP OVC014 M01/M02 A2917 RMK AO2 UPB18 P0000 FZRANO
PAII 170156Z AUTO 36009KT 10SM OVC018 00/M02 A2918 RMK AO2 SLP883 T00001022 FZRANO
PAII 170056Z AUTO 36010G18KT 10SM OVC022 00/M02 A2918 RMK AO2 RAB02E44UPB44E55SNE02 SLP884 P0000 T00001022 FZRANO
PAII 162356Z AUTO 34013G18KT 9SM -SN BKN028 BKN035 OVC044 01/M02 A2919 RMK AO2 RAB37E48SNB48 SLP886 P0000 60000 T00061022 10006 21011 58017 FZRANO
PAII 162344Z AUTO 34011G18KT 10SM -RA BKN028 BKN037 OVC045 01/M02 A2919 RMK AO2 RAB37 P0000 FZRANO
PAII 162256Z AUTO 34007KT 10SM OVC065 01/M01 A2921 RMK AO2 SLP893 T00061011 FZRANO
PAII 162156Z AUTO 35007KT 10SM OVC095 01/M01 A2923 RMK AO2 SLP900 T00061011 FZRANO
PAII 161956Z AUTO 35010G15KT 10SM OVC100 00/M02 A2923 RMK AO2 SLP901 T00001017 FZRANO
PAII 161856Z AUTO 34012G16KT 10SM OVC110 M01/M02 A2923 RMK AO2 SLP903 T10061017 FZRANO
PAII 161656Z AUTO 35011KT 10SM CLR M01/M02 A2927 RMK AO2 SLP915 T10111022 FZRANO
PAII 161456Z AUTO 02006KT 10SM CLR M02/M02 A2932 RMK AO2 SLP931 T10171022 58021 FZRANO